Time;durP1;ratioP1;P1;durP2;ratioP2;P2;SDS_P1;SDS_P2;PMS_P1;PMS_P2;Temp;Humidity;BMP_temperature;BMP_pressure;BME280_temperature;BME280_humidity;BME280_pressure;Samples;Min_cycle;Max_cycle;Signal;HPM_P1;HPM_P2
2023/07/28 00:01:59;;;;;;;1.50;1.40;;;;;;;;;;5098429;28;20195;-84
2023/07/28 00:04:26;;;;;;;3.03;1.50;;;;;;;;;;5094650;28;20399;-84
2023/07/28 00:06:53;;;;;;;3.57;1.70;;;;;;;;;;5098153;28;20204;-84
2023/07/28 00:09:20;;;;;;;3.13;1.40;;;;;;;;;;5090749;28;20203;-84
2023/07/28 00:11:46;;;;;;;3.60;1.67;;;;;;;;;;5103584;28;20260;-84
2023/07/28 00:14:14;;;;;;;3.03;1.37;;;;;;;;;;5097812;28;20665;-84
2023/07/28 00:16:41;;;;;;;2.30;1.90;;;;;;;;;;5097926;28;20230;-85
2023/07/28 00:19:09;;;;;;;1.93;1.60;;;;;;;;;;5093631;28;20191;-85
2023/07/28 00:21:35;;;;;;;3.70;1.77;;;;;;;;;;5113903;28;20203;-85
2023/07/28 00:24:02;;;;;;;1.30;1.20;;;;;;;;;;5101910;28;20229;-86
2023/07/28 00:26:29;;;;;;;1.43;1.20;;;;;;;;;;5102003;28;20201;-86
2023/07/28 00:28:57;;;;;;;2.77;1.73;;;;;;;;;;5101179;28;20196;-85
2023/07/28 00:31:24;;;;;;;1.23;1.13;;;;;;;;;;5100807;28;20241;-84
2023/07/28 00:33:51;;;;;;;1.60;1.50;;;;;;;;;;5106911;28;20207;-84
2023/07/28 00:36:19;;;;;;;2.40;1.93;;;;;;;;;;5108970;28;20223;-83
2023/07/28 00:38:46;;;;;;;3.37;1.73;;;;;;;;;;5114407;28;20202;-84
2023/07/28 00:41:13;;;;;;;1.20;1.20;;;;;;;;;;5112722;28;20200;-84
2023/07/28 00:43:40;;;;;;;2.17;1.43;;;;;;;;;;5103036;28;20566;-84
2023/07/28 00:46:07;;;;;;;1.37;1.27;;;;;;;;;;5112416;28;20205;-84
2023/07/28 00:48:34;;;;;;;1.60;1.50;;;;;;;;;;5114031;28;20283;-84
2023/07/28 00:51:01;;;;;;;1.67;1.57;;;;;;;;;;5099940;28;20312;-84
2023/07/28 00:53:30;;;;;;;1.53;1.43;;;;;;;;;;5108126;28;20573;-84
2023/07/28 00:55:57;;;;;;;1.57;1.47;;;;;;;;;;5094525;28;20214;-86
2023/07/28 00:58:24;;;;;;;1.40;1.30;;;;;;;;;;5104605;28;20654;-86
2023/07/28 01:00:50;;;;;;;10.83;2.33;;;;;;;;;;5096210;28;20197;-85
2023/07/28 01:03:19;;;;;;;1.70;1.60;;;;;;;;;;5113800;28;20597;-85
2023/07/28 01:05:52;;;;;;;2.90;1.50;;;;;;;;;;5097786;28;20700;-84
2023/07/28 01:08:23;;;;;;;2.77;1.47;;;;;;;;;;5113423;28;20731;-84
2023/07/28 01:10:51;;;;;;;1.63;1.53;;;;;;;;;;5099982;28;20198;-86
2023/07/28 01:13:18;;;;;;;1.33;1.10;;;;;;;;;;5103412;28;20572;-83
2023/07/28 01:15:45;;;;;;;2.23;1.83;;;;;;;;;;5098798;28;20227;-83
2023/07/28 01:18:12;;;;;;;1.70;1.60;;;;;;;;;;5101585;28;20204;-83
2023/07/28 01:20:39;;;;;;;2.97;2.23;;;;;;;;;;5106374;28;20199;-83
2023/07/28 01:23:10;;;;;;;5.03;1.90;;;;;;;;;;5105208;28;20204;-83
2023/07/28 01:25:44;;;;;;;2.10;1.63;;;;;;;;;;5113224;28;20275;-83
2023/07/28 01:28:13;;;;;;;1.27;1.10;;;;;;;;;;5100787;28;20202;-83
2023/07/28 01:30:40;;;;;;;1.40;1.30;;;;;;;;;;5105527;28;20195;-83
2023/07/28 01:33:08;;;;;;;1.63;1.53;;;;;;;;;;5104359;28;20199;-83
2023/07/28 01:35:36;;;;;;;1.20;1.10;;;;;;;;;;5099918;28;20654;-83
2023/07/28 01:38:03;;;;;;;1.60;1.23;;;;;;;;;;5098568;28;20206;-83
2023/07/28 01:40:30;;;;;;;2.00;1.57;;;;;;;;;;5104608;28;20743;-84
2023/07/28 01:42:56;;;;;;;4.90;1.70;;;;;;;;;;5108021;28;20199;-85
2023/07/28 01:45:25;;;;;;;5.37;2.30;;;;;;;;;;5112808;28;20202;-84
2023/07/28 01:47:51;;;;;;;2.33;1.47;;;;;;;;;;5097731;28;20208;-83
2023/07/28 01:50:18;;;;;;;1.97;1.53;;;;;;;;;;5112745;28;20195;-83
2023/07/28 01:52:45;;;;;;;2.00;1.60;;;;;;;;;;5112971;28;20684;-83
2023/07/28 01:55:12;;;;;;;2.27;1.93;;;;;;;;;;5102733;28;20218;-83
2023/07/28 01:57:39;;;;;;;3.47;1.50;;;;;;;;;;5096643;28;20215;-83
2023/07/28 02:00:07;;;;;;;1.30;1.23;;;;;;;;;;5101937;28;20211;-84
2023/07/28 02:02:36;;;;;;;4.83;1.70;;;;;;;;;;5104865;28;20191;-83
2023/07/28 02:05:03;;;;;;;2.53;1.40;;;;;;;;;;5102992;28;20199;-84
2023/07/28 02:07:30;;;;;;;1.33;1.23;;;;;;;;;;5104762;28;20207;-84
2023/07/28 02:09:57;;;;;;;2.73;1.50;;;;;;;;;;5103643;28;20202;-84
2023/07/28 02:12:24;;;;;;;1.90;1.50;;;;;;;;;;5095283;28;20565;-85
2023/07/28 02:14:52;;;;;;;1.70;1.53;;;;;;;;;;5100572;28;20205;-84
2023/07/28 02:17:18;;;;;;;3.10;1.60;;;;;;;;;;5105583;28;20220;-84
2023/07/28 02:19:47;;;;;;;3.40;1.90;;;;;;;;;;5092031;28;20198;-84
2023/07/28 02:22:13;;;;;;;2.40;1.53;;;;;;;;;;5107482;28;20195;-85
2023/07/28 02:24:40;;;;;;;1.77;1.60;;;;;;;;;;5105044;28;20203;-85
2023/07/28 02:27:07;;;;;;;2.83;1.77;;;;;;;;;;5112060;28;20567;-86
2023/07/28 02:29:34;;;;;;;1.47;1.37;;;;;;;;;;5111641;28;20577;-84
2023/07/28 02:32:01;;;;;;;1.77;1.50;;;;;;;;;;5106219;28;20579;-85
2023/07/28 02:34:27;;;;;;;1.50;1.40;;;;;;;;;;5091532;28;20210;-84
2023/07/28 02:36:56;;;;;;;2.00;1.90;;;;;;;;;;5098507;28;20226;-85
2023/07/28 02:39:22;;;;;;;1.67;1.50;;;;;;;;;;5097784;28;20669;-84
2023/07/28 02:41:49;;;;;;;3.77;1.57;;;;;;;;;;5110958;28;20213;-86
2023/07/28 02:44:16;;;;;;;2.00;1.30;;;;;;;;;;5099487;28;20217;-84
2023/07/28 02:46:43;;;;;;;1.60;1.50;;;;;;;;;;5106679;28;20199;-85
2023/07/28 02:49:10;;;;;;;4.87;1.67;;;;;;;;;;5104318;28;20217;-85
2023/07/28 02:51:36;;;;;;;2.13;1.93;;;;;;;;;;5112137;28;20222;-85
2023/07/28 02:54:05;;;;;;;1.60;1.50;;;;;;;;;;5097494;28;20570;-85
2023/07/28 02:56:34;;;;;;;3.67;1.43;;;;;;;;;;5090848;28;20216;-84
2023/07/28 02:59:01;;;;;;;3.67;2.77;;;;;;;;;;5106264;28;20321;-84
2023/07/28 03:01:32;;;;;;;2.07;1.43;;;;;;;;;;5111417;28;20209;-84
2023/07/28 03:03:59;;;;;;;2.40;1.90;;;;;;;;;;5097898;28;20214;-85
2023/07/28 03:06:26;;;;;;;3.63;1.63;;;;;;;;;;5103340;28;20195;-85
2023/07/28 03:08:53;;;;;;;1.63;1.53;;;;;;;;;;5106077;28;20201;-84
2023/07/28 03:11:21;;;;;;;4.23;2.53;;;;;;;;;;5111424;28;20222;-84
2023/07/28 03:13:48;;;;;;;1.83;1.40;;;;;;;;;;5111394;28;20284;-84
2023/07/28 03:16:15;;;;;;;2.10;1.50;;;;;;;;;;5101603;28;20219;-84
2023/07/28 03:18:42;;;;;;;2.97;1.50;;;;;;;;;;5107635;28;20278;-85
2023/07/28 03:21:09;;;;;;;1.30;1.20;;;;;;;;;;5111851;28;20205;-84
2023/07/28 03:23:36;;;;;;;1.93;1.50;;;;;;;;;;5106486;28;20195;-84
2023/07/28 03:26:03;;;;;;;1.53;1.43;;;;;;;;;;5100272;28;20202;-84
2023/07/28 03:28:31;;;;;;;3.10;1.57;;;;;;;;;;5096771;28;20212;-85
2023/07/28 03:30:58;;;;;;;1.70;1.60;;;;;;;;;;5100557;28;20196;-84
2023/07/28 03:33:25;;;;;;;5.17;2.80;;;;;;;;;;5090569;28;20199;-84
2023/07/28 03:35:52;;;;;;;1.80;1.70;;;;;;;;;;5102832;28;20210;-83
2023/07/28 03:38:19;;;;;;;3.03;2.20;;;;;;;;;;5097146;28;20219;-84
2023/07/28 03:40:46;;;;;;;3.23;1.77;;;;;;;;;;5098381;28;20227;-84
2023/07/28 03:43:13;;;;;;;2.37;1.80;;;;;;;;;;5095110;28;20226;-82
2023/07/28 03:45:41;;;;;;;1.77;1.67;;;;;;;;;;5097878;28;20208;-82
2023/07/28 03:48:08;;;;;;;1.67;1.57;;;;;;;;;;5092324;28;20207;-82
2023/07/28 03:50:35;;;;;;;2.40;1.37;;;;;;;;;;5098868;28;20199;-83
2023/07/28 03:53:02;;;;;;;1.80;1.50;;;;;;;;;;5109408;28;20205;-83
2023/07/28 03:55:29;;;;;;;1.90;1.80;;;;;;;;;;5112527;28;20209;-83
2023/07/28 03:57:55;;;;;;;1.57;1.47;;;;;;;;;;5108820;28;20230;-83
2023/07/28 04:00:22;;;;;;;3.10;2.00;;;;;;;;;;5107202;28;20196;-83
2023/07/28 04:02:50;;;;;;;1.90;1.80;;;;;;;;;;5099257;28;20266;-82
2023/07/28 04:05:17;;;;;;;2.00;1.77;;;;;;;;;;5094332;28;20204;-83
2023/07/28 04:07:44;;;;;;;1.50;1.40;;;;;;;;;;5099828;28;20195;-80
2023/07/28 04:10:11;;;;;;;1.40;1.23;;;;;;;;;;5114496;28;20209;-81
2023/07/28 04:12:37;;;;;;;3.60;1.80;;;;;;;;;;5094969;28;20191;-81
2023/07/28 04:15:05;;;;;;;4.83;1.90;;;;;;;;;;5094586;28;20210;-83
2023/07/28 04:17:32;;;;;;;4.43;1.63;;;;;;;;;;5107607;28;20228;-81
2023/07/28 04:20:00;;;;;;;3.67;1.40;;;;;;;;;;5107270;28;20212;-81
2023/07/28 04:22:27;;;;;;;1.60;1.50;;;;;;;;;;5094305;28;20199;-81
2023/07/28 04:24:54;;;;;;;3.17;1.67;;;;;;;;;;5107432;28;20312;-81
2023/07/28 04:27:21;;;;;;;1.57;1.47;;;;;;;;;;5107814;28;20267;-81
2023/07/28 04:29:48;;;;;;;2.47;1.50;;;;;;;;;;5107616;28;20209;-81
2023/07/28 04:32:15;;;;;;;2.30;1.93;;;;;;;;;;5100116;28;20223;-80
2023/07/28 04:34:41;;;;;;;1.87;1.50;;;;;;;;;;5100551;28;20203;-81
2023/07/28 04:37:09;;;;;;;1.60;1.50;;;;;;;;;;5101317;28;20215;-81
2023/07/28 04:39:38;;;;;;;3.17;1.80;;;;;;;;;;5114111;28;20267;-80
2023/07/28 04:42:05;;;;;;;2.47;2.00;;;;;;;;;;5105877;28;20204;-81
2023/07/28 04:44:32;;;;;;;2.77;1.70;;;;;;;;;;5108138;28;20204;-81
2023/07/28 04:46:59;;;;;;;2.97;1.93;;;;;;;;;;5093615;28;20203;-81
2023/07/28 04:49:25;;;;;;;2.37;2.00;;;;;;;;;;5096271;28;20205;-80
2023/07/28 04:51:52;;;;;;;5.67;1.90;;;;;;;;;;5114232;28;20237;-81
2023/07/28 04:54:20;;;;;;;2.37;2.23;;;;;;;;;;5113930;28;20195;-81
2023/07/28 04:56:49;;;;;;;2.90;1.77;;;;;;;;;;5113864;28;20230;-81
2023/07/28 04:59:17;;;;;;;1.80;1.53;;;;;;;;;;5099607;28;20206;-81
2023/07/28 05:01:44;;;;;;;3.53;1.50;;;;;;;;;;5108219;28;20194;-81
2023/07/28 05:04:11;;;;;;;2.20;2.00;;;;;;;;;;5093212;28;20194;-81
2023/07/28 05:06:38;;;;;;;1.93;1.50;;;;;;;;;;5103014;28;20200;-81
2023/07/28 05:09:03;;;;;;;1.80;1.53;;;;;;;;;;5113387;28;20688;-81
2023/07/28 05:11:31;;;;;;;1.20;1.20;;;;;;;;;;5102299;28;20205;-81
2023/07/28 05:13:58;;;;;;;1.77;1.67;;;;;;;;;;5106324;28;20196;-81
2023/07/28 05:16:25;;;;;;;1.40;1.30;;;;;;;;;;5093465;28;20206;-81
2023/07/28 05:18:52;;;;;;;1.50;1.40;;;;;;;;;;5106743;28;20226;-80
2023/07/28 05:21:18;;;;;;;5.30;1.50;;;;;;;;;;5092916;28;20196;-80
2023/07/28 05:23:45;;;;;;;3.47;1.93;;;;;;;;;;5104773;28;20203;-81
2023/07/28 05:26:12;;;;;;;4.63;2.00;;;;;;;;;;5093255;28;20203;-81
2023/07/28 05:28:40;;;;;;;3.03;1.97;;;;;;;;;;5097723;28;20195;-81
2023/07/28 05:31:07;;;;;;;3.20;2.27;;;;;;;;;;5101248;28;20207;-81
2023/07/28 05:33:34;;;;;;;10.20;2.43;;;;;;;;;;5098350;28;20207;-80
2023/07/28 05:36:01;;;;;;;6.73;2.20;;;;;;;;;;5100359;28;20626;-81
2023/07/28 05:38:28;;;;;;;5.43;2.43;;;;;;;;;;5107517;28;20651;-81
2023/07/28 05:40:58;;;;;;;5.60;1.80;;;;;;;;;;5092712;28;20207;-81
2023/07/28 05:43:25;;;;;;;1.80;1.60;;;;;;;;;;5109288;28;20246;-80
2023/07/28 05:45:53;;;;;;;4.33;1.80;;;;;;;;;;5106385;28;20403;-81
2023/07/28 05:48:19;;;;;;;3.17;1.23;;;;;;;;;;5092404;28;20196;-81
2023/07/28 05:50:46;;;;;;;1.50;1.40;;;;;;;;;;5105839;28;20223;-81
2023/07/28 05:53:14;;;;;;;1.67;1.57;;;;;;;;;;5097237;28;20658;-80
2023/07/28 05:55:41;;;;;;;2.60;1.33;;;;;;;;;;5112638;28;20227;-81
2023/07/28 05:58:07;;;;;;;3.93;2.03;;;;;;;;;;5112225;28;20231;-80
2023/07/28 06:00:34;;;;;;;3.60;1.33;;;;;;;;;;5099818;28;20202;-81
2023/07/28 06:03:02;;;;;;;3.33;1.50;;;;;;;;;;5091885;28;20278;-80
2023/07/28 06:05:30;;;;;;;1.93;1.60;;;;;;;;;;5092607;28;20281;-80
2023/07/28 06:07:57;;;;;;;1.77;1.67;;;;;;;;;;5105699;28;20203;-81
2023/07/28 06:10:23;;;;;;;1.83;1.60;;;;;;;;;;5107571;28;20195;-81
2023/07/28 06:12:50;;;;;;;2.60;1.57;;;;;;;;;;5111909;28;20226;-80
2023/07/28 06:15:18;;;;;;;1.67;1.53;;;;;;;;;;5096719;28;20204;-80
2023/07/28 06:17:45;;;;;;;1.97;1.70;;;;;;;;;;5098549;28;20661;-81
2023/07/28 06:20:13;;;;;;;1.80;1.70;;;;;;;;;;5109235;28;20196;-81
2023/07/28 06:22:41;;;;;;;3.93;1.50;;;;;;;;;;5091979;28;20200;-81
2023/07/28 06:25:08;;;;;;;1.93;1.50;;;;;;;;;;5108648;28;20203;-81
2023/07/28 06:27:35;;;;;;;2.80;1.53;;;;;;;;;;5111996;28;20748;-81
2023/07/28 06:30:02;;;;;;;2.07;1.50;;;;;;;;;;5098111;28;20244;-81
2023/07/28 06:32:29;;;;;;;1.63;1.10;;;;;;;;;;5101349;28;20222;-80
2023/07/28 06:34:57;;;;;;;2.77;1.33;;;;;;;;;;5109131;28;20207;-82
2023/07/28 06:37:25;;;;;;;3.57;1.53;;;;;;;;;;5101087;28;20227;-81
2023/07/28 06:39:52;;;;;;;1.93;1.30;;;;;;;;;;5106455;28;20206;-81
2023/07/28 06:42:23;;;;;;;1.47;1.37;;;;;;;;;;5102085;28;20206;-80
2023/07/28 06:44:50;;;;;;;6.00;1.97;;;;;;;;;;5098785;28;20217;-82
2023/07/28 06:47:17;;;;;;;1.33;1.27;;;;;;;;;;5099743;28;20201;-81
2023/07/28 06:49:44;;;;;;;2.23;1.63;;;;;;;;;;5096724;28;20198;-80
2023/07/28 06:52:11;;;;;;;1.70;1.60;;;;;;;;;;5111857;28;20702;-80
2023/07/28 06:54:39;;;;;;;1.40;1.30;;;;;;;;;;5108690;28;20199;-80
2023/07/28 06:57:07;;;;;;;2.83;1.50;;;;;;;;;;5111197;28;20580;-81
2023/07/28 06:59:34;;;;;;;1.83;1.50;;;;;;;;;;5092188;28;20200;-80
2023/07/28 07:02:01;;;;;;;4.97;2.57;;;;;;;;;;5104207;28;20196;-80
2023/07/28 07:04:28;;;;;;;2.03;1.60;;;;;;;;;;5096307;28;20199;-80
2023/07/28 07:06:54;;;;;;;1.60;1.50;;;;;;;;;;5111475;28;20298;-80
2023/07/28 07:09:21;;;;;;;2.33;1.67;;;;;;;;;;5092621;28;20192;-80
2023/07/28 07:11:49;;;;;;;1.50;1.37;;;;;;;;;;5091377;28;20207;-80
2023/07/28 07:14:18;;;;;;;2.77;1.83;;;;;;;;;;5098467;28;20195;-80
2023/07/28 07:16:45;;;;;;;5.00;2.57;;;;;;;;;;5097945;28;20204;-80
2023/07/28 07:19:13;;;;;;;1.93;1.67;;;;;;;;;;5098387;28;20235;-80
2023/07/28 07:21:40;;;;;;;3.93;2.07;;;;;;;;;;5111290;28;20282;-81
2023/07/28 07:24:07;;;;;;;2.30;1.77;;;;;;;;;;5111514;28;20195;-80
2023/07/28 07:26:34;;;;;;;3.03;1.83;;;;;;;;;;5111131;28;20199;-80
2023/07/28 07:29:02;;;;;;;3.93;1.70;;;;;;;;;;5111320;28;20195;-80
2023/07/28 07:31:29;;;;;;;1.73;1.63;;;;;;;;;;5112288;28;20200;-80
2023/07/28 07:33:56;;;;;;;2.27;1.50;;;;;;;;;;5104539;28;20199;-80
2023/07/28 07:36:23;;;;;;;1.77;1.57;;;;;;;;;;5113119;28;20191;-81
2023/07/28 07:38:50;;;;;;;2.33;1.80;;;;;;;;;;5101977;28;20228;-80
2023/07/28 07:41:19;;;;;;;2.83;1.83;;;;;;;;;;5101889;28;20204;-80
2023/07/28 07:43:46;;;;;;;3.10;1.80;;;;;;;;;;5105018;28;20207;-80
2023/07/28 07:46:15;;;;;;;7.40;2.73;;;;;;;;;;5111680;28;20580;-80
2023/07/28 07:48:42;;;;;;;1.53;1.40;;;;;;;;;;5115368;28;20204;-80
2023/07/28 07:51:08;;;;;;;1.70;1.60;;;;;;;;;;5115009;28;20234;-80
2023/07/28 07:53:36;;;;;;;2.03;1.70;;;;;;;;;;5104899;28;20204;-80
2023/07/28 07:56:03;;;;;;;1.83;1.73;;;;;;;;;;5111208;28;20191;-80
2023/07/28 07:58:30;;;;;;;2.77;1.70;;;;;;;;;;5104003;28;20216;-80
2023/07/28 08:00:57;;;;;;;2.27;1.70;;;;;;;;;;5094774;28;20207;-80
2023/07/28 08:03:25;;;;;;;3.50;1.73;;;;;;;;;;5105528;28;20210;-80
2023/07/28 08:05:52;;;;;;;3.30;1.70;;;;;;;;;;5099333;28;20245;-80
2023/07/28 08:08:19;;;;;;;2.77;1.70;;;;;;;;;;5104912;28;20192;-80
2023/07/28 08:10:47;;;;;;;1.53;1.43;;;;;;;;;;5110132;28;20275;-80
2023/07/28 08:13:13;;;;;;;3.70;1.73;;;;;;;;;;5102194;28;20199;-79
2023/07/28 08:15:41;;;;;;;2.30;1.30;;;;;;;;;;5108283;28;20681;-80
2023/07/28 08:18:08;;;;;;;2.73;2.07;;;;;;;;;;5093922;28;20706;-80
2023/07/28 08:20:36;;;;;;;2.50;1.80;;;;;;;;;;5106864;28;20192;-80
2023/07/28 08:23:03;;;;;;;2.50;1.87;;;;;;;;;;5094250;28;20204;-80
2023/07/28 08:25:30;;;;;;;2.30;1.67;;;;;;;;;;5108230;28;20324;-80
2023/07/28 08:27:56;;;;;;;1.67;1.40;;;;;;;;;;5093861;28;20678;-81
2023/07/28 08:30:23;;;;;;;1.80;1.60;;;;;;;;;;5100809;28;20666;-79
2023/07/28 08:32:50;;;;;;;1.80;1.70;;;;;;;;;;5114067;28;20221;-79
2023/07/28 08:35:17;;;;;;;4.73;3.93;;;;;;;;;;5114259;28;20192;-80
2023/07/28 08:37:45;;;;;;;6.50;2.57;;;;;;;;;;5114036;28;20286;-80
2023/07/28 08:40:13;;;;;;;3.80;2.93;;;;;;;;;;5106918;28;20201;-81
2023/07/28 08:42:41;;;;;;;4.47;2.87;;;;;;;;;;5105364;28;20608;-81
2023/07/28 08:45:09;;;;;;;4.43;3.10;;;;;;;;;;5105926;28;20203;-80
2023/07/28 08:47:35;;;;;;;3.43;2.00;;;;;;;;;;5093775;28;20196;-80
2023/07/28 08:50:03;;;;;;;2.30;2.10;;;;;;;;;;5093524;28;20655;-80
2023/07/28 08:52:30;;;;;;;2.60;1.63;;;;;;;;;;5105073;28;20223;-80
2023/07/28 08:54:58;;;;;;;1.93;1.63;;;;;;;;;;5101505;28;20667;-80
2023/07/28 08:57:25;;;;;;;2.07;1.70;;;;;;;;;;5113284;28;20195;-80
2023/07/28 08:59:53;;;;;;;1.97;1.87;;;;;;;;;;5114369;28;20223;-81
2023/07/28 09:02:21;;;;;;;9.63;5.37;;;;;;;;;;5098047;28;20196;-80
2023/07/28 09:04:49;;;;;;;2.63;1.80;;;;;;;;;;5101448;28;20650;-80
2023/07/28 09:07:16;;;;;;;1.60;1.50;;;;;;;;;;5113430;28;20202;-80
2023/07/28 09:09:43;;;;;;;2.47;1.60;;;;;;;;;;5114062;28;20191;-79
2023/07/28 09:12:11;;;;;;;2.63;2.10;;;;;;;;;;5111234;28;20283;-79
2023/07/28 09:14:39;;;;;;;1.63;1.53;;;;;;;;;;5101757;28;20548;-80
2023/07/28 09:17:09;;;;;;;2.40;1.50;;;;;;;;;;5099737;28;20199;-79
2023/07/28 09:19:50;;;;;;;2.33;1.80;;;;;;;;;;5102389;28;20224;-80
2023/07/28 09:22:18;;;;;;;2.60;1.40;;;;;;;;;;5093256;28;20196;-79
2023/07/28 09:24:46;;;;;;;2.67;1.30;;;;;;;;;;5106272;28;20201;-80
2023/07/28 09:27:22;;;;;;;1.80;1.57;;;;;;;;;;5092605;28;20200;-79
2023/07/28 09:29:50;;;;;;;1.53;1.30;;;;;;;;;;5094091;28;20254;-79
2023/07/28 09:32:17;;;;;;;3.00;1.40;;;;;;;;;;5103770;28;20658;-79
2023/07/28 09:34:44;;;;;;;3.47;1.37;;;;;;;;;;5105425;28;20286;-79
2023/07/28 09:37:12;;;;;;;3.93;1.80;;;;;;;;;;5092961;28;20200;-80
2023/07/28 09:39:41;;;;;;;3.97;3.30;;;;;;;;;;5092583;28;20308;-80
2023/07/28 09:42:10;;;;;;;3.00;1.80;;;;;;;;;;5101468;28;20283;-80
2023/07/28 09:44:38;;;;;;;3.37;1.60;;;;;;;;;;5109136;28;20196;-80
2023/07/28 09:47:06;;;;;;;1.70;1.60;;;;;;;;;;5101159;28;20658;-81
2023/07/28 09:49:37;;;;;;;4.13;1.80;;;;;;;;;;5109176;28;20192;-79
2023/07/28 09:52:06;;;;;;;2.53;1.77;;;;;;;;;;5101134;28;20314;-80
2023/07/28 09:54:39;;;;;;;1.57;1.47;;;;;;;;;;5107846;28;20199;-81
2023/07/28 09:57:07;;;;;;;1.87;1.77;;;;;;;;;;5102251;28;20203;-81
2023/07/28 09:59:40;;;;;;;11.68;1.70;;;;;;;;;;5098424;28;20268;-80
2023/07/28 10:02:07;;;;;;;1.55;1.45;;;;;;;;;;5112399;28;20207;-80
2023/07/28 10:04:34;;;;;;;1.52;1.42;;;;;;;;;;5092092;28;20284;-79
2023/07/28 10:07:01;;;;;;;1.93;1.33;;;;;;;;;;5106602;28;20195;-80
2023/07/28 10:09:30;;;;;;;1.93;1.40;;;;;;;;;;5098971;28;20217;-80
2023/07/28 10:11:57;;;;;;;5.40;1.30;;;;;;;;;;5098284;28;20207;-79
2023/07/28 10:14:28;;;;;;;1.83;1.50;;;;;;;;;;5111421;28;20569;-80
2023/07/28 10:16:57;;;;;;;2.80;1.50;;;;;;;;;;5112123;28;20257;-80
2023/07/28 10:19:26;;;;;;;2.03;1.87;;;;;;;;;;5103278;28;20228;-80
2023/07/28 10:22:00;;;;;;;1.70;1.60;;;;;;;;;;5104914;28;20253;-80
2023/07/28 10:24:51;;;;;;;2.20;1.60;;;;;;;;;;5102359;28;20611;-80
2023/07/28 10:27:29;;;;;;;2.97;2.13;;;;;;;;;;5092457;28;20283;-80
2023/07/28 10:30:00;;;;;;;2.15;1.95;;;;;;;;;;5093291;28;20208;-81
2023/07/28 10:32:29;;;;;;;2.10;1.55;;;;;;;;;;5103483;28;20584;-80
2023/07/28 10:35:05;;;;;;;4.40;2.22;;;;;;;;;;5107132;28;20206;-79
2023/07/28 10:37:31;;;;;;;1.50;1.30;;;;;;;;;;5100682;28;20200;-80
2023/07/28 10:40:29;;;;;;;2.08;1.98;;;;;;;;;;5105260;28;20356;-79
2023/07/28 10:42:56;;;;;;;2.22;1.90;;;;;;;;;;5103968;28;20204;-79
2023/07/28 10:45:24;;;;;;;1.75;1.65;;;;;;;;;;5101526;28;20192;-79
2023/07/28 10:47:55;;;;;;;2.13;2.00;;;;;;;;;;5096367;28;20564;-80
2023/07/28 10:50:22;;;;;;;2.63;2.10;;;;;;;;;;5101616;28;20203;-80
2023/07/28 10:52:49;;;;;;;2.13;2.03;;;;;;;;;;5094220;28;20195;-79
2023/07/28 10:55:16;;;;;;;3.28;1.77;;;;;;;;;;5101845;28;20203;-80
2023/07/28 10:57:44;;;;;;;1.75;1.65;;;;;;;;;;5104485;28;20192;-79
2023/07/28 11:00:12;;;;;;;1.83;1.70;;;;;;;;;;5102086;28;20593;-80
2023/07/28 11:02:40;;;;;;;2.70;1.77;;;;;;;;;;5099239;28;20588;-81
2023/07/28 11:05:12;;;;;;;1.83;1.73;;;;;;;;;;5099075;28;20245;-80
2023/07/28 11:07:39;;;;;;;2.42;1.65;;;;;;;;;;5109512;28;20256;-80
2023/07/28 11:10:07;;;;;;;1.90;1.80;;;;;;;;;;5111240;28;20199;-80
2023/07/28 11:12:34;;;;;;;4.82;1.50;;;;;;;;;;5098041;28;20223;-80
2023/07/28 11:15:01;;;;;;;1.95;1.73;;;;;;;;;;5099778;28;20196;-80
2023/07/28 11:17:28;;;;;;;1.67;1.58;;;;;;;;;;5109995;28;20192;-80
2023/07/28 11:19:54;;;;;;;2.80;1.50;;;;;;;;;;5111565;28;20236;-81
2023/07/28 11:22:22;;;;;;;1.70;1.60;;;;;;;;;;5111482;28;20183;-79
2023/07/28 11:24:52;;;;;;;1.65;1.55;;;;;;;;;;5111175;28;20199;-80
2023/07/28 11:27:19;;;;;;;2.17;1.67;;;;;;;;;;5103690;28;20196;-80
2023/07/28 11:29:46;;;;;;;1.65;1.40;;;;;;;;;;5104566;28;20658;-79
2023/07/28 11:32:14;;;;;;;1.60;1.50;;;;;;;;;;5091056;28;20192;-79
2023/07/28 11:34:41;;;;;;;1.83;1.40;;;;;;;;;;5090613;28;20262;-80
2023/07/28 11:37:09;;;;;;;1.80;1.70;;;;;;;;;;5099232;28;20235;-80
2023/07/28 11:39:37;;;;;;;2.10;1.90;;;;;;;;;;5097201;28;20224;-80
2023/07/28 11:42:05;;;;;;;2.20;1.63;;;;;;;;;;5102422;28;20199;-79
2023/07/28 11:44:32;;;;;;;2.17;1.98;;;;;;;;;;5101950;28;20199;-80
2023/07/28 11:46:59;;;;;;;1.65;1.52;;;;;;;;;;5091229;28;20204;-80
2023/07/28 11:49:26;;;;;;;1.80;1.40;;;;;;;;;;5092847;28;20200;-80
2023/07/28 11:51:54;;;;;;;1.73;1.60;;;;;;;;;;5111091;28;20281;-80
2023/07/28 11:54:23;;;;;;;1.38;1.27;;;;;;;;;;5110824;28;20619;-78
2023/07/28 11:56:54;;;;;;;1.50;1.40;;;;;;;;;;5100712;28;20689;-79
2023/07/28 11:59:22;;;;;;;3.20;2.28;;;;;;;;;;5108871;28;20238;-79
2023/07/28 12:01:54;;;;;;;1.80;1.58;;;;;;;;;;5110970;28;20658;-79
2023/07/28 12:04:21;;;;;;;2.47;1.58;;;;;;;;;;5097114;28;20199;-79
2023/07/28 12:07:17;;;;;;;2.97;1.85;;;;;;;;;;5111531;28;20618;-79
2023/07/28 12:09:52;;;;;;;1.85;1.60;;;;;;;;;;5065788;28;20291;-79
2023/07/28 12:12:21;;;;;;;1.50;1.40;;;;;;;;;;5108355;28;20579;-79
2023/07/28 12:14:51;;;;;;;1.63;1.52;;;;;;;;;;5110944;28;20195;-79
2023/07/28 12:17:19;;;;;;;1.80;1.70;;;;;;;;;;5110198;28;20218;-79
2023/07/28 12:19:57;;;;;;;2.03;1.92;;;;;;;;;;5094128;28;20228;-79
2023/07/28 12:22:23;;;;;;;2.42;2.20;;;;;;;;;;5099051;28;20203;-79
2023/07/28 12:24:50;;;;;;;2.28;1.70;;;;;;;;;;5114167;28;20203;-79
2023/07/28 12:27:20;;;;;;;2.38;1.77;;;;;;;;;;5114804;28;20260;-79
2023/07/28 12:29:47;;;;;;;2.10;1.50;;;;;;;;;;5102033;28;20214;-80
2023/07/28 12:32:14;;;;;;;3.75;1.70;;;;;;;;;;5105613;28;21013;-80
2023/07/28 12:34:41;;;;;;;2.22;1.67;;;;;;;;;;5094169;28;20554;-80
2023/07/28 12:37:07;;;;;;;1.58;1.48;;;;;;;;;;5102361;28;20637;-79
2023/07/28 12:39:38;;;;;;;1.67;1.58;;;;;;;;;;5099010;28;20220;-79
2023/07/28 12:42:06;;;;;;;2.13;1.60;;;;;;;;;;5104043;28;20224;-79
2023/07/28 12:44:34;;;;;;;1.77;1.67;;;;;;;;;;5097135;28;20199;-80
2023/07/28 12:47:01;;;;;;;2.83;1.83;;;;;;;;;;5103949;28;20192;-79
2023/07/28 12:49:28;;;;;;;1.75;1.65;;;;;;;;;;5106698;28;20223;-79
2023/07/28 12:51:56;;;;;;;2.50;1.75;;;;;;;;;;5103476;28;20253;-79
2023/07/28 12:54:22;;;;;;;1.85;1.75;;;;;;;;;;5112989;28;20635;-78
2023/07/28 12:56:49;;;;;;;1.88;1.67;;;;;;;;;;5114414;28;20253;-78
2023/07/28 12:59:17;;;;;;;3.33;2.10;;;;;;;;;;5096532;28;20670;-79
2023/07/28 13:01:46;;;;;;;1.55;1.45;;;;;;;;;;5093627;28;20593;-78
2023/07/28 13:04:13;;;;;;;1.60;1.50;;;;;;;;;;5111069;28;20278;-79
2023/07/28 13:06:40;;;;;;;1.70;1.60;;;;;;;;;;5103764;28;20656;-78
2023/07/28 13:09:08;;;;;;;2.00;1.90;;;;;;;;;;5110424;28;20306;-79
2023/07/28 13:11:34;;;;;;;2.28;1.65;;;;;;;;;;5102930;28;20197;-79
2023/07/28 13:14:01;;;;;;;2.13;1.92;;;;;;;;;;5107446;28;20283;-81
2023/07/28 13:16:28;;;;;;;2.53;1.63;;;;;;;;;;5093439;28;20203;-78
2023/07/28 13:18:56;;;;;;;1.52;1.42;;;;;;;;;;5095532;28;20200;-79
2023/07/28 13:21:26;;;;;;;1.75;1.65;;;;;;;;;;5101424;28;20785;-79
2023/07/28 13:23:53;;;;;;;1.52;1.42;;;;;;;;;;5093360;28;20200;-79
2023/07/28 13:26:20;;;;;;;2.45;1.35;;;;;;;;;;5103291;28;20726;-79
2023/07/28 13:28:48;;;;;;;2.85;1.85;;;;;;;;;;5099992;28;20195;-78
2023/07/28 13:31:16;;;;;;;3.25;1.60;;;;;;;;;;5100585;28;20196;-79
2023/07/28 13:33:43;;;;;;;2.65;1.58;;;;;;;;;;5092817;28;20227;-79
2023/07/28 13:36:11;;;;;;;3.08;1.77;;;;;;;;;;5106335;28;20256;-78
2023/07/28 13:38:38;;;;;;;2.75;1.48;;;;;;;;;;5092428;28;20569;-81
2023/07/28 13:41:06;;;;;;;1.63;1.52;;;;;;;;;;5107890;28;20226;-78
2023/07/28 13:43:34;;;;;;;1.90;1.77;;;;;;;;;;5105231;28;20207;-79
2023/07/28 13:46:01;;;;;;;4.80;1.90;;;;;;;;;;5106493;28;20191;-78
2023/07/28 13:48:28;;;;;;;3.42;1.70;;;;;;;;;;5100311;28;20203;-79
2023/07/28 13:50:55;;;;;;;1.88;1.77;;;;;;;;;;5098433;28;20227;-79
2023/07/28 13:53:23;;;;;;;2.80;1.70;;;;;;;;;;5105158;28;20200;-79
2023/07/28 13:55:50;;;;;;;1.98;1.67;;;;;;;;;;5107015;28;20198;-79
2023/07/28 13:58:18;;;;;;;2.38;2.15;;;;;;;;;;5100913;28;20252;-78
2023/07/28 14:00:45;;;;;;;1.85;1.65;;;;;;;;;;5099615;28;20227;-78
2023/07/28 14:03:12;;;;;;;3.13;1.60;;;;;;;;;;5103007;28;20196;-78
2023/07/28 14:05:39;;;;;;;2.88;1.60;;;;;;;;;;5106632;28;20200;-79
2023/07/28 14:08:06;;;;;;;2.10;1.90;;;;;;;;;;5100904;28;20205;-79
2023/07/28 14:10:34;;;;;;;6.03;2.17;;;;;;;;;;5099659;28;20196;-79
2023/07/28 14:13:01;;;;;;;1.80;1.70;;;;;;;;;;5102463;28;20199;-79
2023/07/28 14:15:28;;;;;;;1.90;1.80;;;;;;;;;;5105571;28;20196;-79
2023/07/28 14:17:55;;;;;;;2.88;1.83;;;;;;;;;;5102108;28;20192;-78
2023/07/28 14:20:22;;;;;;;1.65;1.55;;;;;;;;;;5108164;28;20212;-78
2023/07/28 14:22:48;;;;;;;1.80;1.70;;;;;;;;;;5102423;28;20199;-78
2023/07/28 14:25:16;;;;;;;2.95;1.80;;;;;;;;;;5094632;28;20208;-79
2023/07/28 14:27:44;;;;;;;4.10;1.90;;;;;;;;;;5102770;28;20666;-79
2023/07/28 14:30:12;;;;;;;4.18;1.80;;;;;;;;;;5094004;28;20189;-78
2023/07/28 14:32:39;;;;;;;5.38;2.00;;;;;;;;;;5103565;28;20195;-78
2023/07/28 14:35:06;;;;;;;1.50;1.40;;;;;;;;;;5099631;28;20195;-79
2023/07/28 14:37:33;;;;;;;1.95;1.85;;;;;;;;;;5100498;28;20204;-79
2023/07/28 14:40:00;;;;;;;3.03;1.60;;;;;;;;;;5106065;28;20227;-78
2023/07/28 14:42:26;;;;;;;2.17;1.90;;;;;;;;;;5104143;28;20196;-78
2023/07/28 14:44:54;;;;;;;3.80;2.08;;;;;;;;;;5112162;28;20203;-78
2023/07/28 14:47:21;;;;;;;2.35;2.10;;;;;;;;;;5098350;28;20196;-78